Strava‎ > ‎

June

We'll keep it brief and to the point:   https://www.strava.com/segments/15033333

Ride it hard folks.

RESULTS JUNE:

Women

Rank Name Date Speed HR Power Time
1 Lara Taylor Jun 28, 2017 34.9km/h 160bpm 237W 10:14

Men

Rank Name Date Speed HR Power Time
1 Jon Hughes Jun 19, 2017 40.5km/h 162bpm 279W PM 08:50
2 Mark Herbert | VCGH Jun 11, 2017 38.8km/h - 317W 09:13
3 Chris Parker Jun 30, 2017 38.7km/h - 321W 09:15
4 Karl Chandler Jun 3, 2017 38.3km/h 126bpm 283W 09:20
4 Matt Hill Jun 22, 2017 38.3km/h 158bpm 306W 09:20
6 David Smith Jun 11, 2017 38.2km/h - 308W 09:21
7 Ben Brown Jun 25, 2017 37.8km/h 185bpm 336W PM 09:27
8 Marco Beestro Jun 16, 2017 35.8km/h 160bpm 279W 09:59
9 Alastair B Jun 10, 2017 35.5km/h 173bpm 297W PM 10:04
10 Tim Grose Jun 26, 2017 34.7km/h 140bpm 221W 10:19
11 Steven Byers Jun 28, 2017 34.2km/h - 259W 10:28
12 Ross Ovens Jun 29, 2017 33.8km/h 163bpm 256W 10:35
13 Ike on Bikes Jun 20, 2017 33.6km/h 163bpm 234W 10:38
13 Alastair Dodwell Jun 30, 2017 33.6km/h - 231W 10:38
14 James Andrews Jun 30, 2017 32.7km/h 265W 10:51
16 Matt Kevern Jun 12, 2017 32.8km/h 160bpm 238W 10:54
17 Jim Hunt Jun 14, 2017 30.1km/h 128bpm 183W 11:53
18 Christopher Harrison Jun 14, 2017 30.0km/h 149bpm 221W PM 11:56
19 David Dodgson Jun 25, 2017 23.7km/h - 128W 15:05


Comments